createdAt,value
2023-05-05T00:01:26.212Z,21.35
2023-05-05T00:03:27.680Z,21.36
2023-05-05T00:05:29.079Z,21.34
2023-05-05T00:07:30.392Z,21.36
2023-05-05T00:09:31.720Z,21.37
2023-05-05T00:11:33.085Z,21.38
2023-05-05T00:13:34.421Z,21.38
2023-05-05T00:15:36.393Z,21.39
2023-05-05T00:17:37.844Z,21.37
2023-05-05T00:19:39.185Z,21.36
2023-05-05T00:21:40.573Z,21.37
2023-05-05T00:23:41.877Z,21.39
2023-05-05T00:25:43.215Z,21.39
2023-05-05T00:27:44.580Z,21.38
2023-05-05T00:29:45.935Z,21.36
2023-05-05T00:31:47.238Z,21.34
2023-05-05T00:33:48.566Z,21.32
2023-05-05T00:35:49.900Z,21.31
2023-05-05T00:37:51.224Z,21.31
2023-05-05T00:39:52.828Z,20.49
2023-05-05T00:41:54.209Z,21.33
2023-05-05T00:43:55.560Z,21.33
2023-05-05T00:45:56.923Z,21.34
2023-05-05T00:47:58.349Z,21.33
2023-05-05T00:49:59.685Z,21.34
2023-05-05T00:52:01.091Z,21.32
2023-05-05T00:54:02.382Z,21.30
2023-05-05T00:56:03.681Z,21.30
2023-05-05T00:58:05.205Z,21.30
2023-05-05T01:00:09.828Z,21.29
2023-05-05T01:02:11.319Z,21.29
2023-05-05T01:04:12.636Z,21.31
2023-05-05T01:06:17.123Z,21.33
2023-05-05T01:08:18.430Z,21.31
2023-05-05T01:10:20.905Z,21.29
2023-05-05T01:12:22.396Z,21.27
2023-05-05T01:14:23.813Z,21.26
2023-05-05T01:16:25.211Z,21.25
2023-05-05T01:18:27.672Z,21.26
2023-05-05T01:20:28.978Z,21.26
2023-05-05T01:22:30.377Z,21.26
2023-05-05T01:24:31.671Z,21.27
2023-05-05T01:26:33.010Z,21.28
2023-05-05T01:28:34.307Z,21.26
2023-05-05T01:30:35.673Z,21.28
2023-05-05T01:32:37.042Z,21.27
2023-05-05T01:34:38.460Z,21.24
2023-05-05T01:36:39.863Z,21.25
2023-05-05T01:38:41.202Z,21.31
2023-05-05T01:40:43.634Z,21.35
2023-05-05T01:42:44.969Z,21.39
2023-05-05T01:44:46.305Z,21.42
2023-05-05T01:46:47.650Z,21.43
2023-05-05T01:48:48.944Z,21.43
2023-05-05T01:50:50.297Z,21.41
2023-05-05T01:52:51.779Z,21.41
2023-05-05T01:54:53.073Z,21.41
2023-05-05T01:56:54.516Z,21.42
2023-05-05T01:58:55.909Z,21.45
2023-05-05T02:00:57.264Z,21.47
2023-05-05T02:02:59.804Z,21.48
2023-05-05T02:05:02.182Z,21.49
2023-05-05T02:07:03.475Z,21.52
2023-05-05T02:09:04.823Z,21.51
2023-05-05T02:11:06.155Z,21.51
2023-05-05T02:13:07.662Z,21.52
2023-05-05T02:15:09.154Z,21.50
2023-05-05T02:17:10.841Z,21.53
2023-05-05T02:19:12.313Z,21.52
2023-05-05T02:21:14.850Z,21.51
2023-05-05T02:23:16.190Z,21.47
2023-05-05T02:25:18.000Z,21.44
2023-05-05T02:27:19.346Z,21.45
2023-05-05T02:29:20.685Z,20.76
2023-05-05T02:31:22.088Z,21.45
2023-05-05T02:33:23.435Z,21.47
2023-05-05T02:35:24.747Z,21.49
2023-05-05T02:37:26.094Z,21.49
2023-05-05T02:39:27.431Z,21.47
2023-05-05T02:41:28.733Z,21.58
2023-05-05T02:43:30.512Z,21.66
2023-05-05T02:45:31.900Z,21.50
2023-05-05T02:47:33.220Z,21.35
2023-05-05T02:49:34.610Z,21.26
2023-05-05T02:51:36.184Z,21.18
2023-05-05T02:53:37.482Z,19.71
2023-05-05T02:55:38.798Z,18.49
2023-05-05T02:57:40.106Z,17.90
2023-05-05T02:59:41.792Z,17.64
2023-05-05T03:01:43.178Z,17.48
2023-05-05T03:03:44.793Z,17.76
2023-05-05T03:05:47.525Z,18.72
2023-05-05T03:07:48.973Z,19.42
2023-05-05T03:09:50.272Z,19.98
2023-05-05T03:11:51.563Z,20.34
2023-05-05T03:13:52.894Z,20.58
2023-05-05T03:15:54.213Z,20.75
2023-05-05T03:17:55.736Z,20.89
2023-05-05T03:19:57.054Z,21.01
2023-05-05T03:21:58.342Z,21.09
2023-05-05T03:23:59.675Z,21.16
2023-05-05T03:26:00.972Z,21.21
2023-05-05T03:28:02.254Z,21.30
2023-05-05T03:30:03.705Z,21.35
2023-05-05T03:32:05.055Z,21.37
2023-05-05T03:34:07.280Z,21.43
2023-05-05T03:36:08.741Z,21.42
2023-05-05T03:38:10.099Z,21.44
2023-05-05T03:40:11.438Z,21.51
2023-05-05T03:42:12.734Z,21.52
2023-05-05T03:44:14.094Z,21.54
2023-05-05T03:46:16.195Z,21.55
2023-05-05T03:48:17.681Z,21.55
2023-05-05T03:50:19.096Z,21.55
2023-05-05T03:52:20.481Z,21.52
2023-05-05T03:54:21.778Z,21.45
2023-05-05T03:56:23.124Z,21.41
2023-05-05T03:58:24.424Z,21.37
2023-05-05T04:00:25.724Z,21.37
2023-05-05T04:02:27.180Z,21.37
2023-05-05T04:04:28.666Z,21.33
2023-05-05T04:06:30.025Z,21.29
2023-05-05T04:08:31.494Z,21.22
2023-05-05T04:10:32.834Z,21.18
2023-05-05T04:12:34.189Z,21.13
2023-05-05T04:14:35.851Z,20.47
2023-05-05T04:16:37.445Z,21.04
2023-05-05T04:18:38.771Z,20.99
2023-05-05T04:20:40.151Z,20.94
2023-05-05T04:22:41.485Z,20.93
2023-05-05T04:24:42.801Z,20.92
2023-05-05T04:26:44.189Z,20.92
2023-05-05T04:28:45.597Z,20.90
2023-05-05T04:30:46.953Z,20.88
2023-05-05T04:32:48.330Z,20.85
2023-05-05T04:34:49.635Z,20.82
2023-05-05T04:36:50.935Z,20.81
2023-05-05T04:38:52.300Z,20.77
2023-05-05T04:40:53.671Z,20.76
2023-05-05T04:42:54.975Z,20.75
2023-05-05T04:44:56.409Z,20.77
2023-05-05T04:46:58.125Z,20.77
2023-05-05T04:48:59.513Z,20.77
2023-05-05T04:51:00.946Z,20.78
2023-05-05T04:53:02.846Z,20.79
2023-05-05T04:55:04.713Z,20.80
2023-05-05T04:57:06.353Z,20.81
2023-05-05T04:59:08.111Z,20.84
2023-05-05T05:01:09.848Z,20.88
2023-05-05T05:03:11.529Z,20.93
2023-05-05T05:05:12.995Z,20.95
2023-05-05T05:07:17.493Z,20.99
2023-05-05T05:09:18.802Z,21.00
2023-05-05T05:11:20.107Z,21.02
2023-05-05T05:13:21.497Z,21.02
2023-05-05T05:15:22.849Z,21.03
2023-05-05T05:17:24.906Z,21.02
2023-05-05T05:19:26.384Z,21.00
2023-05-05T05:21:27.781Z,21.04
2023-05-05T05:23:29.233Z,21.07
2023-05-05T05:25:30.566Z,21.10
2023-05-05T05:27:31.864Z,21.09
2023-05-05T05:29:33.161Z,21.08
2023-05-05T05:31:35.110Z,21.05
2023-05-05T05:33:36.498Z,21.02
2023-05-05T05:35:38.000Z,21.00
2023-05-05T05:37:39.305Z,20.98
2023-05-05T05:39:42.725Z,20.94
2023-05-05T05:41:44.879Z,20.93
2023-05-05T05:43:46.269Z,20.97
2023-05-05T05:45:50.546Z,21.01
2023-05-05T05:47:51.971Z,21.05
2023-05-05T05:49:53.355Z,21.09
2023-05-05T05:51:54.652Z,21.13
2023-05-05T05:53:58.160Z,21.14
2023-05-05T05:56:02.242Z,21.15
2023-05-05T05:58:03.556Z,21.16
2023-05-05T06:00:05.504Z,21.12
2023-05-05T06:02:07.654Z,21.11
2023-05-05T06:04:09.202Z,21.08
2023-05-05T06:06:10.623Z,21.03
2023-05-05T06:08:11.975Z,20.98
2023-05-05T06:10:26.601Z,20.95
2023-05-05T06:12:29.447Z,20.91
2023-05-05T06:14:30.780Z,20.88
2023-05-05T06:16:32.190Z,20.85
2023-05-05T06:18:33.642Z,20.83
2023-05-05T06:20:34.960Z,20.83
2023-05-05T06:22:36.343Z,20.84
2023-05-05T06:24:37.791Z,20.89
2023-05-05T06:26:39.092Z,20.90
2023-05-05T06:28:41.881Z,20.90
2023-05-05T06:30:43.256Z,20.96
2023-05-05T06:32:44.600Z,21.02
2023-05-05T06:34:47.455Z,21.05
2023-05-05T06:36:48.840Z,21.06
2023-05-05T06:38:50.781Z,21.05
2023-05-05T06:40:52.119Z,21.05
2023-05-05T06:42:53.415Z,21.05
2023-05-05T06:44:54.716Z,21.03
2023-05-05T06:46:56.203Z,21.04
2023-05-05T06:48:57.555Z,21.08
2023-05-05T06:50:59.213Z,21.11
2023-05-05T06:53:01.152Z,21.12
2023-05-05T06:55:03.746Z,21.15
2023-05-05T06:57:05.159Z,21.17
2023-05-05T06:59:06.476Z,21.18
2023-05-05T07:01:08.067Z,21.17
2023-05-05T07:03:09.528Z,21.15
2023-05-05T07:05:10.923Z,21.15
2023-05-05T07:07:12.362Z,21.12
2023-05-05T07:09:15.244Z,21.11
2023-05-05T07:11:20.567Z,21.10
2023-05-05T07:13:21.938Z,21.10
2023-05-05T07:15:27.567Z,21.08
2023-05-05T07:17:30.942Z,21.03
2023-05-05T07:19:32.296Z,20.98
2023-05-05T07:21:33.758Z,20.96
2023-05-05T07:23:35.147Z,20.95
2023-05-05T07:25:36.456Z,20.94
2023-05-05T07:27:37.792Z,20.90
2023-05-05T07:29:39.109Z,20.89
2023-05-05T07:31:40.473Z,20.86
2023-05-05T07:33:42.279Z,20.85
2023-05-05T07:35:43.578Z,20.85
2023-05-05T07:37:45.111Z,20.90
2023-05-05T07:39:48.712Z,20.96
2023-05-05T07:41:50.111Z,21.00
2023-05-05T07:43:51.752Z,21.05
2023-05-05T07:45:53.104Z,21.08
2023-05-05T07:47:54.452Z,21.10
2023-05-05T07:49:55.957Z,21.10
2023-05-05T07:51:57.392Z,21.12
2023-05-05T07:53:58.733Z,21.11
2023-05-05T07:56:00.260Z,21.13
2023-05-05T07:58:01.619Z,21.17
2023-05-05T08:00:03.208Z,21.23
2023-05-05T08:02:04.860Z,21.25
2023-05-05T08:04:06.263Z,21.27
2023-05-05T08:06:08.931Z,21.27
2023-05-05T08:08:10.291Z,21.29
2023-05-05T08:10:12.032Z,21.27
2023-05-05T08:12:15.205Z,21.27
2023-05-05T08:14:16.611Z,21.25
2023-05-05T08:16:17.934Z,21.25
2023-05-05T08:18:19.366Z,21.23
2023-05-05T08:20:21.098Z,21.22
2023-05-05T08:22:22.445Z,21.20
2023-05-05T08:24:23.775Z,21.21
2023-05-05T08:26:25.189Z,21.20
2023-05-05T08:28:26.516Z,21.18
2023-05-05T08:30:27.823Z,21.17
2023-05-05T08:32:29.888Z,21.16
2023-05-05T08:34:31.468Z,21.16
2023-05-05T08:36:32.767Z,21.13
2023-05-05T08:38:34.128Z,21.10
2023-05-05T08:40:36.445Z,21.09
2023-05-05T08:42:39.131Z,21.09
2023-05-05T08:44:40.943Z,21.08
2023-05-05T08:46:42.285Z,21.08
2023-05-05T08:48:43.651Z,21.05
2023-05-05T08:50:44.940Z,21.05
2023-05-05T08:52:46.840Z,21.04
2023-05-05T08:54:48.890Z,21.02
2023-05-05T08:56:51.496Z,21.01
2023-05-05T08:58:52.856Z,20.99
2023-05-05T09:00:54.230Z,20.99
2023-05-05T09:02:55.876Z,20.98
2023-05-05T09:04:57.391Z,20.98
2023-05-05T09:06:58.794Z,20.96
2023-05-05T09:09:00.136Z,20.95
2023-05-05T09:11:02.241Z,20.95
2023-05-05T09:13:03.639Z,20.94
2023-05-05T09:15:05.448Z,20.92
2023-05-05T09:17:07.105Z,20.90
2023-05-05T09:19:08.452Z,20.91
2023-05-05T09:21:09.745Z,20.89
2023-05-05T09:23:11.136Z,20.89
2023-05-05T09:25:12.520Z,20.87
2023-05-05T09:27:13.831Z,20.85
2023-05-05T09:29:15.159Z,20.86
2023-05-05T09:31:16.618Z,20.84
2023-05-05T09:33:18.135Z,20.83
2023-05-05T09:35:19.498Z,20.82
2023-05-05T09:37:20.822Z,20.80
2023-05-05T09:39:22.121Z,20.80
2023-05-05T09:41:23.428Z,20.78
2023-05-05T09:43:24.762Z,20.78
2023-05-05T09:45:26.553Z,20.77
2023-05-05T09:47:29.819Z,20.76
2023-05-05T09:49:31.334Z,20.77
2023-05-05T09:51:32.667Z,20.75
2023-05-05T09:53:33.968Z,20.75
2023-05-05T09:55:36.060Z,20.74
2023-05-05T09:57:37.389Z,20.74
2023-05-05T09:59:41.863Z,20.74
2023-05-05T10:01:43.818Z,20.73
2023-05-05T10:03:45.197Z,20.72
2023-05-05T10:05:46.529Z,20.72
2023-05-05T10:07:48.013Z,20.73
2023-05-05T10:09:49.394Z,20.71
2023-05-05T10:11:50.835Z,20.70
2023-05-05T10:13:52.289Z,20.71
2023-05-05T10:15:53.661Z,20.70
2023-05-05T10:18:06.924Z,20.70
2023-05-05T10:20:09.403Z,20.69
2023-05-05T10:22:10.839Z,20.69
2023-05-05T10:24:12.149Z,20.68
2023-05-05T10:26:13.515Z,20.68
2023-05-05T10:28:14.824Z,20.68
2023-05-05T10:30:16.111Z,20.68
2023-05-05T10:32:46.977Z,20.68
2023-05-05T10:34:39.297Z,20.68
2023-05-05T10:36:40.621Z,20.68
2023-05-05T10:38:41.960Z,20.67
2023-05-05T10:40:43.319Z,20.66
2023-05-05T10:42:44.680Z,20.66
2023-05-05T10:44:46.127Z,20.67
2023-05-05T10:46:47.439Z,20.67
2023-05-05T10:48:48.814Z,20.67
2023-05-05T10:50:50.171Z,20.66
2023-05-05T10:52:51.743Z,20.65
2023-05-05T10:54:53.083Z,20.66
2023-05-05T10:56:54.424Z,20.66
2023-05-05T10:59:00.172Z,20.65
2023-05-05T11:01:02.533Z,20.65
2023-05-05T11:03:03.996Z,20.65
2023-05-05T11:05:05.405Z,20.65
2023-05-05T11:07:13.381Z,20.65
2023-05-05T11:09:15.893Z,20.64
2023-05-05T11:11:17.212Z,20.65
2023-05-05T11:13:19.220Z,20.65
2023-05-05T11:15:20.577Z,20.65
2023-05-05T11:17:22.229Z,20.65
2023-05-05T11:19:23.601Z,20.65
2023-05-05T11:21:24.912Z,20.64
2023-05-05T11:23:26.200Z,20.64
2023-05-05T11:25:27.509Z,20.65
2023-05-05T11:27:28.844Z,20.64
2023-05-05T11:29:30.140Z,20.62
2023-05-05T11:31:31.684Z,20.62
2023-05-05T11:33:33.177Z,20.63
2023-05-05T11:35:34.482Z,20.61
2023-05-05T11:37:35.795Z,20.63
2023-05-05T11:39:37.213Z,20.62
2023-05-05T11:41:38.551Z,20.62
2023-05-05T11:43:39.848Z,20.62
2023-05-05T11:45:41.190Z,20.61
2023-05-05T11:47:42.723Z,20.61
2023-05-05T11:49:44.171Z,20.61
2023-05-05T11:51:45.472Z,20.59
2023-05-05T11:53:46.813Z,20.56
2023-05-05T11:55:48.115Z,20.55
2023-05-05T11:57:49.513Z,20.55
2023-05-05T11:59:51.722Z,20.56
2023-05-05T12:01:53.075Z,20.59
2023-05-05T12:03:54.525Z,20.58
2023-05-05T12:05:55.975Z,20.57
2023-05-05T12:07:58.530Z,20.55
2023-05-05T12:09:59.974Z,20.56
2023-05-05T12:12:01.738Z,20.56
2023-05-05T12:14:03.068Z,20.58
2023-05-05T12:16:04.446Z,20.57
2023-05-05T12:18:06.494Z,20.55
2023-05-05T12:20:08.961Z,20.53
2023-05-05T12:22:10.467Z,20.55
2023-05-05T12:24:11.815Z,20.56
2023-05-05T12:26:13.139Z,20.55
2023-05-05T12:28:14.480Z,20.65
2023-05-05T12:30:16.225Z,20.64
2023-05-05T12:32:17.698Z,20.60
2023-05-05T12:34:18.991Z,20.60
2023-05-05T12:36:20.462Z,20.58
2023-05-05T12:38:21.757Z,20.58
2023-05-05T12:40:23.088Z,20.58
2023-05-05T12:42:24.389Z,20.60
2023-05-05T12:44:25.684Z,20.60
2023-05-05T12:46:27.043Z,20.69
2023-05-05T12:48:28.440Z,21.21
2023-05-05T12:50:29.740Z,21.52
2023-05-05T12:52:31.043Z,21.69
2023-05-05T12:54:32.363Z,21.78
2023-05-05T12:56:34.334Z,21.86
2023-05-05T12:58:35.676Z,21.40
2023-05-05T13:00:37.195Z,21.08
2023-05-05T13:02:38.548Z,20.88
2023-05-05T13:04:39.944Z,20.80
2023-05-05T13:06:43.970Z,20.75
2023-05-05T13:08:45.396Z,20.74
2023-05-05T13:10:46.759Z,20.71
2023-05-05T13:12:48.285Z,20.69
2023-05-05T13:14:49.615Z,20.66
2023-05-05T13:16:50.955Z,20.63
2023-05-05T13:18:53.557Z,20.62
2023-05-05T13:20:54.897Z,20.63
2023-05-05T13:22:56.259Z,20.64
2023-05-05T13:24:57.553Z,20.62
2023-05-05T13:26:58.882Z,20.61
2023-05-05T13:29:00.177Z,20.61
2023-05-05T13:31:01.625Z,20.59
2023-05-05T13:33:05.699Z,20.59
2023-05-05T13:35:07.218Z,20.58
2023-05-05T13:37:08.894Z,20.58
2023-05-05T13:39:11.287Z,20.59
2023-05-05T13:41:12.600Z,20.59
2023-05-05T13:43:13.933Z,20.59
2023-05-05T13:45:17.315Z,20.57
2023-05-05T13:47:18.729Z,20.55
2023-05-05T13:49:20.277Z,20.55
2023-05-05T13:51:21.579Z,20.55
2023-05-05T13:53:22.912Z,20.53
2023-05-05T13:55:27.137Z,20.53
2023-05-05T13:57:28.497Z,20.54
2023-05-05T13:59:30.051Z,20.53
2023-05-05T14:01:31.372Z,20.51
2023-05-05T14:03:32.735Z,20.51
2023-05-05T14:05:34.330Z,20.50
2023-05-05T14:07:35.739Z,20.52
2023-05-05T14:09:37.062Z,20.51
2023-05-05T14:11:38.434Z,20.51
2023-05-05T14:13:39.784Z,20.49
2023-05-05T14:15:41.086Z,20.48
2023-05-05T14:17:42.441Z,20.47
2023-05-05T14:19:44.504Z,20.47
2023-05-05T14:21:46.007Z,20.47
2023-05-05T14:23:47.421Z,20.46
2023-05-05T14:25:48.764Z,20.46
2023-05-05T14:27:50.073Z,20.47
2023-05-05T14:29:51.398Z,20.46
2023-05-05T14:31:52.749Z,20.45
2023-05-05T14:33:54.051Z,20.44
2023-05-05T14:35:55.393Z,20.41
2023-05-05T14:37:56.715Z,20.38
2023-05-05T14:39:58.271Z,20.36
2023-05-05T14:41:59.670Z,20.32
2023-05-05T14:44:00.996Z,20.31
2023-05-05T14:46:06.763Z,20.28
2023-05-05T14:48:08.321Z,20.26
2023-05-05T14:50:09.902Z,20.23
2023-05-05T14:52:11.233Z,20.22
2023-05-05T14:54:26.893Z,20.21
2023-05-05T14:56:29.064Z,20.18
2023-05-05T14:58:31.094Z,20.18
2023-05-05T15:00:32.619Z,20.15
2023-05-05T15:02:34.026Z,20.15
2023-05-05T15:04:35.495Z,20.13
2023-05-05T15:06:36.990Z,20.11
2023-05-05T15:08:39.069Z,20.10
2023-05-05T15:10:40.680Z,20.10
2023-05-05T15:12:42.977Z,20.09
2023-05-05T15:14:44.369Z,20.09
2023-05-05T15:16:46.790Z,20.08
2023-05-05T15:18:48.155Z,20.07
2023-05-05T15:20:49.459Z,20.06
2023-05-05T15:22:50.920Z,20.06
2023-05-05T15:24:52.269Z,20.04
2023-05-05T15:26:53.589Z,20.03
2023-05-05T15:28:54.913Z,19.98
2023-05-05T15:30:56.229Z,19.96
2023-05-05T15:32:57.653Z,19.99
2023-05-05T15:34:58.975Z,19.99
2023-05-05T15:37:00.412Z,19.99
2023-05-05T15:39:02.195Z,19.99
2023-05-05T15:41:03.496Z,19.99
2023-05-05T15:43:07.695Z,19.99
2023-05-05T15:45:12.024Z,19.98
2023-05-05T15:47:13.405Z,19.98
2023-05-05T15:49:14.779Z,19.98
2023-05-05T15:51:16.338Z,19.98
2023-05-05T15:53:17.689Z,19.97
2023-05-05T15:55:19.021Z,19.95
2023-05-05T15:57:20.335Z,19.95
2023-05-05T15:59:21.723Z,19.95
2023-05-05T16:01:23.357Z,19.93
2023-05-05T16:03:25.107Z,19.91
2023-05-05T16:05:26.681Z,19.90
2023-05-05T16:07:27.968Z,19.90
2023-05-05T16:09:29.319Z,19.89
2023-05-05T16:11:30.887Z,19.88
2023-05-05T16:13:32.726Z,19.87
2023-05-05T16:15:34.136Z,19.85
2023-05-05T16:17:35.546Z,20.22
2023-05-05T16:19:36.858Z,21.05
2023-05-05T16:21:38.202Z,21.35
2023-05-05T16:23:39.534Z,21.08
2023-05-05T16:25:40.868Z,21.06
2023-05-05T16:27:42.325Z,21.18
2023-05-05T16:29:43.763Z,21.28
2023-05-05T16:31:45.121Z,21.28
2023-05-05T16:33:46.483Z,21.59
2023-05-05T16:35:48.095Z,21.40
2023-05-05T16:37:49.567Z,21.52
2023-05-05T16:39:50.899Z,21.43
2023-05-05T16:41:52.195Z,21.42
2023-05-05T16:43:53.745Z,21.39
2023-05-05T16:45:55.123Z,21.39
2023-05-05T16:47:56.509Z,21.40
2023-05-05T16:49:57.929Z,21.40
2023-05-05T16:51:59.283Z,21.39
2023-05-05T16:54:00.838Z,21.41
2023-05-05T16:56:02.161Z,21.39
2023-05-05T16:58:03.493Z,21.46
2023-05-05T17:00:05.400Z,21.47
2023-05-05T17:02:06.851Z,21.39
2023-05-05T17:04:08.295Z,20.95
2023-05-05T17:06:09.719Z,20.90
2023-05-05T17:08:14.533Z,21.06
2023-05-05T17:10:15.833Z,21.16
2023-05-05T17:12:17.138Z,21.21
2023-05-05T17:14:18.578Z,21.24
2023-05-05T17:16:19.983Z,21.38
2023-05-05T17:18:22.712Z,21.74
2023-05-05T17:20:24.033Z,21.62
2023-05-05T17:22:25.451Z,21.49
2023-05-05T17:24:26.774Z,21.64
2023-05-05T17:26:28.104Z,21.47
2023-05-05T17:28:29.405Z,21.39
2023-05-05T17:30:33.709Z,21.10
2023-05-05T17:32:35.097Z,20.85
2023-05-05T17:34:36.448Z,20.72
2023-05-05T17:36:37.786Z,20.98
2023-05-05T17:38:39.092Z,21.37
2023-05-05T17:40:40.442Z,21.61
2023-05-05T17:42:41.743Z,21.65
2023-05-05T17:44:43.085Z,21.74
2023-05-05T17:46:44.522Z,21.82
2023-05-05T17:48:46.156Z,22.35
2023-05-05T17:50:47.587Z,22.68
2023-05-05T17:52:48.924Z,22.29
2023-05-05T17:54:50.443Z,22.10
2023-05-05T17:56:51.782Z,22.05
2023-05-05T17:58:53.392Z,22.08
2023-05-05T18:00:54.707Z,22.60
2023-05-05T18:02:56.133Z,22.85
2023-05-05T18:04:57.542Z,22.89
2023-05-05T18:06:58.847Z,22.84
2023-05-05T18:09:00.162Z,22.03
2023-05-05T18:11:02.249Z,22.96
2023-05-05T18:13:03.597Z,23.01
2023-05-05T18:15:05.616Z,22.76
2023-05-05T18:17:06.953Z,22.57
2023-05-05T18:19:08.245Z,22.43
2023-05-05T18:21:12.175Z,22.44
2023-05-05T18:23:13.750Z,22.39
2023-05-05T18:25:15.158Z,22.33
2023-05-05T18:27:16.507Z,21.85
2023-05-05T18:29:17.987Z,21.61
2023-05-05T18:31:19.438Z,21.91
2023-05-05T18:33:20.750Z,22.18
2023-05-05T18:35:22.405Z,22.33
2023-05-05T18:37:23.756Z,22.26
2023-05-05T18:39:25.271Z,22.24
2023-05-05T18:41:29.594Z,22.16
2023-05-05T18:43:30.917Z,22.10
2023-05-05T18:45:32.264Z,22.10
2023-05-05T18:47:33.888Z,22.10
2023-05-05T18:49:35.240Z,22.00
2023-05-05T18:51:39.633Z,22.07
2023-05-05T18:53:41.508Z,22.01
2023-05-05T18:55:43.976Z,21.97
2023-05-05T18:57:45.445Z,21.96
2023-05-05T18:59:49.548Z,21.92
2023-05-05T19:01:50.884Z,21.92
2023-05-05T19:03:52.231Z,21.97
2023-05-05T19:05:54.252Z,22.09
2023-05-05T19:07:55.553Z,22.04
2023-05-05T19:09:56.949Z,22.02
2023-05-05T19:11:58.382Z,21.75
2023-05-05T19:14:00.193Z,21.57
2023-05-05T19:16:01.522Z,21.46
2023-05-05T19:18:03.004Z,21.80
2023-05-05T19:20:04.413Z,22.07
2023-05-05T19:22:06.710Z,22.24
2023-05-05T19:24:08.050Z,22.29
2023-05-05T19:26:10.335Z,22.31
2023-05-05T19:28:12.045Z,22.28
2023-05-05T19:30:13.509Z,22.31
2023-05-05T19:32:15.017Z,22.35
2023-05-05T19:34:16.437Z,22.37
2023-05-05T19:36:19.141Z,22.37
2023-05-05T19:38:20.615Z,22.39
2023-05-05T19:40:21.912Z,22.40
2023-05-05T19:42:23.267Z,22.40
2023-05-05T19:44:24.626Z,22.44
2023-05-05T19:46:29.293Z,22.52
2023-05-05T19:48:31.439Z,22.54
2023-05-05T19:50:32.733Z,22.50
2023-05-05T19:52:36.558Z,22.57
2023-05-05T19:54:37.976Z,22.52
2023-05-05T19:56:39.632Z,22.53
2023-05-05T19:58:40.973Z,22.61
2023-05-05T20:00:42.437Z,22.54
2023-05-05T20:02:45.278Z,22.44
2023-05-05T20:04:46.736Z,21.98
2023-05-05T20:06:50.801Z,21.86
2023-05-05T20:08:52.462Z,22.04
2023-05-05T20:10:53.784Z,22.18
2023-05-05T20:12:55.181Z,22.24
2023-05-05T20:14:56.528Z,22.29
2023-05-05T20:16:57.871Z,22.36
2023-05-05T20:21:00.735Z,22.58
2023-05-05T20:23:02.037Z,22.58
2023-05-05T20:25:03.408Z,22.49
2023-05-05T20:27:05.682Z,22.51
2023-05-05T20:29:06.977Z,22.59
2023-05-05T20:31:08.357Z,22.61
2023-05-05T20:33:09.706Z,22.58
2023-05-05T20:35:12.886Z,22.42
2023-05-05T20:37:14.278Z,22.20
2023-05-05T20:39:16.145Z,22.35
2023-05-05T20:41:17.567Z,22.43
2023-05-05T20:43:18.983Z,22.46
2023-05-05T20:45:20.340Z,22.47
2023-05-05T20:47:21.759Z,22.47
2023-05-05T20:49:23.073Z,22.45
2023-05-05T20:51:24.385Z,22.55
2023-05-05T20:53:26.238Z,22.49
2023-05-05T20:55:27.581Z,22.47
2023-05-05T20:57:29.400Z,22.49
2023-05-05T20:59:30.773Z,22.49
2023-05-05T21:01:32.248Z,22.52
2023-05-05T21:03:33.693Z,22.37
2023-05-05T21:05:35.944Z,22.28
2023-05-05T21:07:37.300Z,22.26
2023-05-05T21:09:38.596Z,22.22
2023-05-05T21:11:40.007Z,22.20
2023-05-05T21:13:41.311Z,22.15
2023-05-05T21:15:42.608Z,22.18
2023-05-05T21:17:43.983Z,22.31
2023-05-05T21:19:45.359Z,21.97
2023-05-05T21:21:46.659Z,21.61
2023-05-05T21:23:48.171Z,21.42
2023-05-05T21:25:49.507Z,21.26
2023-05-05T21:27:51.003Z,21.29
2023-05-05T21:29:52.341Z,21.27
2023-05-05T21:31:53.773Z,21.25
2023-05-05T21:33:55.426Z,21.22
2023-05-05T21:35:56.732Z,21.20
2023-05-05T21:37:58.122Z,21.17
2023-05-05T21:39:59.468Z,21.13
2023-05-05T21:42:00.790Z,21.10
2023-05-05T21:44:02.402Z,21.08
2023-05-05T21:46:03.834Z,21.06
2023-05-05T21:48:05.576Z,21.03
2023-05-05T21:50:07.096Z,21.01
2023-05-05T21:52:08.548Z,20.98
2023-05-05T21:54:09.912Z,20.97
2023-05-05T21:56:11.244Z,20.97
2023-05-05T21:58:12.648Z,20.94
2023-05-05T22:00:16.852Z,20.92
2023-05-05T22:02:18.278Z,20.89
2023-05-05T22:04:19.620Z,20.86
2023-05-05T22:06:20.928Z,20.85
2023-05-05T22:08:22.319Z,20.84
2023-05-05T22:10:23.651Z,20.82
2023-05-05T22:12:25.011Z,20.80
2023-05-05T22:14:26.369Z,20.79
2023-05-05T22:16:27.691Z,20.77
2023-05-05T22:18:29.154Z,20.76
2023-05-05T22:20:30.900Z,20.75
2023-05-05T22:22:32.502Z,20.73
2023-05-05T22:24:33.807Z,20.72
2023-05-05T22:26:35.212Z,20.71
2023-05-05T22:28:36.626Z,20.69
2023-05-05T22:30:37.960Z,20.68
2023-05-05T22:32:39.314Z,20.67
2023-05-05T22:34:40.653Z,20.65
2023-05-05T22:36:42.257Z,20.65
2023-05-05T22:38:43.598Z,20.63
2023-05-05T22:40:44.947Z,20.63
2023-05-05T22:42:46.292Z,20.63
2023-05-05T22:44:47.600Z,20.63
2023-05-05T22:46:48.966Z,20.67
2023-05-05T22:48:54.217Z,20.75
2023-05-05T22:50:57.149Z,20.82
2023-05-05T22:52:58.539Z,20.84
2023-05-05T22:54:59.888Z,20.88
2023-05-05T22:57:02.307Z,20.91
2023-05-05T22:59:03.722Z,20.93
2023-05-05T23:01:05.270Z,20.93
2023-05-05T23:03:06.702Z,20.91
2023-05-05T23:05:08.300Z,20.90
2023-05-05T23:07:09.919Z,20.88
2023-05-05T23:09:11.237Z,20.87
2023-05-05T23:11:12.570Z,20.84
2023-05-05T23:13:14.022Z,19.97
2023-05-05T23:15:15.718Z,20.86
2023-05-05T23:17:17.026Z,20.93
2023-05-05T23:19:18.374Z,20.95
2023-05-05T23:21:19.709Z,20.95
2023-05-05T23:23:21.084Z,20.94
2023-05-05T23:25:22.384Z,20.93
2023-05-05T23:27:23.820Z,20.93
2023-05-05T23:29:25.195Z,20.95
2023-05-05T23:31:26.625Z,20.97
2023-05-05T23:33:28.084Z,20.99
2023-05-05T23:35:29.420Z,20.98
2023-05-05T23:37:31.026Z,20.96
2023-05-05T23:39:32.368Z,20.93
2023-05-05T23:41:33.663Z,20.91
2023-05-05T23:43:34.971Z,20.89
2023-05-05T23:45:36.307Z,20.87
2023-05-05T23:47:37.710Z,20.86
2023-05-05T23:49:39.070Z,20.85
2023-05-05T23:51:40.376Z,20.83
2023-05-05T23:53:41.812Z,20.86
2023-05-05T23:55:43.226Z,20.86
2023-05-05T23:57:44.646Z,20.86
2023-05-05T23:59:46.003Z,20.86
